sensor_id;sensor_type;location;lat;lon;timestamp;P1;durP1;ratioP1;P2;durP2;ratioP2
72095;SDS011;59968;51.084;16.748;2023-03-14T00:00:01;5.70;;;2.90;;
72095;SDS011;59968;51.084;16.748;2023-03-14T00:02:54;5.90;;;3.20;;
72095;SDS011;59968;51.084;16.748;2023-03-14T00:05:22;6.80;;;3.10;;
72095;SDS011;59968;51.084;16.748;2023-03-14T00:07:51;7.70;;;3.00;;
72095;SDS011;59968;51.084;16.748;2023-03-14T00:10:19;5.40;;;2.40;;
72095;SDS011;59968;51.084;16.748;2023-03-14T00:12:48;4.60;;;2.30;;
72095;SDS011;59968;51.084;16.748;2023-03-14T00:15:17;5.10;;;3.10;;
72095;SDS011;59968;51.084;16.748;2023-03-14T00:17:45;6.50;;;3.20;;
72095;SDS011;59968;51.084;16.748;2023-03-14T00:20:14;6.10;;;3.60;;
72095;SDS011;59968;51.084;16.748;2023-03-14T00:22:42;6.90;;;3.10;;
72095;SDS011;59968;51.084;16.748;2023-03-14T00:25:10;5.00;;;3.00;;
72095;SDS011;59968;51.084;16.748;2023-03-14T00:27:39;5.00;;;2.80;;
72095;SDS011;59968;51.084;16.748;2023-03-14T00:30:08;6.00;;;3.20;;
72095;SDS011;59968;51.084;16.748;2023-03-14T00:32:37;5.40;;;2.70;;
72095;SDS011;59968;51.084;16.748;2023-03-14T00:35:06;5.80;;;3.10;;
72095;SDS011;59968;51.084;16.748;2023-03-14T00:37:34;3.60;;;2.30;;
72095;SDS011;59968;51.084;16.748;2023-03-14T00:40:06;4.00;;;2.20;;
72095;SDS011;59968;51.084;16.748;2023-03-14T00:42:35;6.10;;;2.80;;
72095;SDS011;59968;51.084;16.748;2023-03-14T00:45:04;7.60;;;3.10;;
72095;SDS011;59968;51.084;16.748;2023-03-14T00:47:34;5.70;;;3.10;;
72095;SDS011;59968;51.084;16.748;2023-03-14T00:50:02;8.10;;;3.20;;
72095;SDS011;59968;51.084;16.748;2023-03-14T00:52:31;6.20;;;2.80;;
72095;SDS011;59968;51.084;16.748;2023-03-14T00:55:00;5.30;;;2.70;;
72095;SDS011;59968;51.084;16.748;2023-03-14T00:57:28;6.90;;;3.00;;
72095;SDS011;59968;51.084;16.748;2023-03-14T00:59:56;6.70;;;3.30;;
72095;SDS011;59968;51.084;16.748;2023-03-14T01:02:24;5.60;;;2.40;;
72095;SDS011;59968;51.084;16.748;2023-03-14T01:04:53;7.30;;;3.80;;
72095;SDS011;59968;51.084;16.748;2023-03-14T01:07:22;6.50;;;3.80;;
72095;SDS011;59968;51.084;16.748;2023-03-14T01:09:51;7.20;;;3.80;;
72095;SDS011;59968;51.084;16.748;2023-03-14T01:12:20;7.70;;;3.80;;
72095;SDS011;59968;51.084;16.748;2023-03-14T01:14:49;6.80;;;3.50;;
72095;SDS011;59968;51.084;16.748;2023-03-14T01:17:17;7.60;;;3.70;;
72095;SDS011;59968;51.084;16.748;2023-03-14T01:19:45;6.30;;;3.60;;
72095;SDS011;59968;51.084;16.748;2023-03-14T01:22:14;8.40;;;4.10;;
72095;SDS011;59968;51.084;16.748;2023-03-14T01:24:42;6.20;;;3.70;;
72095;SDS011;59968;51.084;16.748;2023-03-14T01:27:10;7.30;;;4.10;;
72095;SDS011;59968;51.084;16.748;2023-03-14T01:29:39;8.10;;;4.10;;
72095;SDS011;59968;51.084;16.748;2023-03-14T01:32:07;6.40;;;3.70;;
72095;SDS011;59968;51.084;16.748;2023-03-14T01:34:36;7.50;;;4.30;;
72095;SDS011;59968;51.084;16.748;2023-03-14T01:37:04;11.30;;;4.40;;
72095;SDS011;59968;51.084;16.748;2023-03-14T01:39:34;8.60;;;4.10;;
72095;SDS011;59968;51.084;16.748;2023-03-14T01:42:02;8.30;;;4.40;;
72095;SDS011;59968;51.084;16.748;2023-03-14T01:44:48;8.70;;;3.90;;
72095;SDS011;59968;51.084;16.748;2023-03-14T01:47:18;8.60;;;4.80;;
72095;SDS011;59968;51.084;16.748;2023-03-14T01:49:49;11.40;;;4.30;;
72095;SDS011;59968;51.084;16.748;2023-03-14T01:55:12;11.00;;;4.20;;
72095;SDS011;59968;51.084;16.748;2023-03-14T01:57:54;11.00;;;4.40;;
72095;SDS011;59968;51.084;16.748;2023-03-14T02:00:29;12.30;;;4.90;;
72095;SDS011;59968;51.084;16.748;2023-03-14T02:06:24;6.50;;;3.50;;
72095;SDS011;59968;51.084;16.748;2023-03-14T02:08:59;8.00;;;3.80;;
72095;SDS011;59968;51.084;16.748;2023-03-14T02:11:31;8.30;;;3.60;;
72095;SDS011;59968;51.084;16.748;2023-03-14T02:14:28;7.10;;;3.50;;
72095;SDS011;59968;51.084;16.748;2023-03-14T02:17:16;6.50;;;3.30;;
72095;SDS011;59968;51.084;16.748;2023-03-14T02:22:56;7.80;;;3.80;;
72095;SDS011;59968;51.084;16.748;2023-03-14T02:28:09;7.30;;;3.10;;
72095;SDS011;59968;51.084;16.748;2023-03-14T02:30:39;8.10;;;3.70;;
72095;SDS011;59968;51.084;16.748;2023-03-14T02:33:08;6.00;;;3.00;;
72095;SDS011;59968;51.084;16.748;2023-03-14T02:35:44;5.60;;;3.40;;
72095;SDS011;59968;51.084;16.748;2023-03-14T02:40:55;6.20;;;3.40;;
72095;SDS011;59968;51.084;16.748;2023-03-14T02:43:23;6.20;;;2.60;;
72095;SDS011;59968;51.084;16.748;2023-03-14T02:45:57;6.60;;;3.00;;
72095;SDS011;59968;51.084;16.748;2023-03-14T02:51:03;6.10;;;2.80;;
72095;SDS011;59968;51.084;16.748;2023-03-14T02:53:33;5.50;;;2.50;;
72095;SDS011;59968;51.084;16.748;2023-03-14T02:56:07;4.50;;;2.50;;
72095;SDS011;59968;51.084;16.748;2023-03-14T02:58:36;4.80;;;2.70;;
72095;SDS011;59968;51.084;16.748;2023-03-14T03:01:13;7.30;;;2.50;;
72095;SDS011;59968;51.084;16.748;2023-03-14T03:03:42;4.90;;;2.60;;
72095;SDS011;59968;51.084;16.748;2023-03-14T03:06:10;4.70;;;2.70;;
72095;SDS011;59968;51.084;16.748;2023-03-14T03:08:38;8.40;;;2.70;;
72095;SDS011;59968;51.084;16.748;2023-03-14T03:11:07;4.60;;;2.60;;
72095;SDS011;59968;51.084;16.748;2023-03-14T03:13:35;6.30;;;2.70;;
72095;SDS011;59968;51.084;16.748;2023-03-14T03:16:04;5.50;;;2.70;;
72095;SDS011;59968;51.084;16.748;2023-03-14T03:18:34;5.40;;;2.50;;
72095;SDS011;59968;51.084;16.748;2023-03-14T03:21:03;3.80;;;2.10;;
72095;SDS011;59968;51.084;16.748;2023-03-14T03:23:32;4.40;;;2.50;;
72095;SDS011;59968;51.084;16.748;2023-03-14T03:26:00;3.90;;;2.20;;
72095;SDS011;59968;51.084;16.748;2023-03-14T03:28:30;5.60;;;2.70;;
72095;SDS011;59968;51.084;16.748;2023-03-14T03:30:58;6.10;;;2.70;;
72095;SDS011;59968;51.084;16.748;2023-03-14T03:33:26;4.40;;;2.40;;
72095;SDS011;59968;51.084;16.748;2023-03-14T03:35:55;5.30;;;2.50;;
72095;SDS011;59968;51.084;16.748;2023-03-14T03:38:28;4.40;;;2.70;;
72095;SDS011;59968;51.084;16.748;2023-03-14T03:40:56;6.30;;;2.70;;
72095;SDS011;59968;51.084;16.748;2023-03-14T03:43:25;4.60;;;2.80;;
72095;SDS011;59968;51.084;16.748;2023-03-14T03:45:54;4.80;;;2.80;;
72095;SDS011;59968;51.084;16.748;2023-03-14T03:48:23;5.10;;;3.00;;
72095;SDS011;59968;51.084;16.748;2023-03-14T03:50:51;6.50;;;2.80;;
72095;SDS011;59968;51.084;16.748;2023-03-14T03:53:21;5.10;;;2.60;;
72095;SDS011;59968;51.084;16.748;2023-03-14T03:56:01;5.80;;;2.40;;
72095;SDS011;59968;51.084;16.748;2023-03-14T03:58:30;4.80;;;2.50;;
72095;SDS011;59968;51.084;16.748;2023-03-14T04:00:58;5.60;;;2.80;;
72095;SDS011;59968;51.084;16.748;2023-03-14T04:03:27;6.20;;;2.70;;
72095;SDS011;59968;51.084;16.748;2023-03-14T04:06:10;4.20;;;2.60;;
72095;SDS011;59968;51.084;16.748;2023-03-14T04:08:41;7.30;;;2.70;;
72095;SDS011;59968;51.084;16.748;2023-03-14T04:11:12;5.40;;;3.00;;
72095;SDS011;59968;51.084;16.748;2023-03-14T04:13:54;4.70;;;2.70;;
72095;SDS011;59968;51.084;16.748;2023-03-14T04:16:23;6.70;;;2.50;;
72095;SDS011;59968;51.084;16.748;2023-03-14T04:18:58;6.40;;;2.70;;
72095;SDS011;59968;51.084;16.748;2023-03-14T04:21:27;6.00;;;2.80;;
72095;SDS011;59968;51.084;16.748;2023-03-14T04:23:57;6.20;;;2.80;;
72095;SDS011;59968;51.084;16.748;2023-03-14T04:26:29;5.20;;;3.00;;
72095;SDS011;59968;51.084;16.748;2023-03-14T04:28:57;6.30;;;2.50;;
72095;SDS011;59968;51.084;16.748;2023-03-14T04:31:25;5.60;;;3.10;;
72095;SDS011;59968;51.084;16.748;2023-03-14T04:33:54;3.80;;;2.10;;
72095;SDS011;59968;51.084;16.748;2023-03-14T04:36:51;5.60;;;2.80;;
72095;SDS011;59968;51.084;16.748;2023-03-14T04:39:25;6.00;;;2.50;;
72095;SDS011;59968;51.084;16.748;2023-03-14T04:42:00;4.80;;;2.40;;
72095;SDS011;59968;51.084;16.748;2023-03-14T04:44:29;4.80;;;2.90;;
72095;SDS011;59968;51.084;16.748;2023-03-14T04:46:57;5.10;;;2.80;;
72095;SDS011;59968;51.084;16.748;2023-03-14T04:49:26;6.10;;;3.10;;
72095;SDS011;59968;51.084;16.748;2023-03-14T04:51:54;6.40;;;3.00;;
